sensor_id;sensor_type;location;lat;lon;timestamp;pressure;altitude;pressure_sealevel;temperature;humidity
63916;BME280;50094;51.356;-0.196;2023-02-22T00:01:25;100465.79;;;25.60;27.19
63916;BME280;50094;51.356;-0.196;2023-02-22T00:03:53;100462.95;;;25.57;27.19
63916;BME280;50094;51.356;-0.196;2023-02-22T00:06:21;100458.16;;;25.57;27.19
63916;BME280;50094;51.356;-0.196;2023-02-22T00:08:48;100458.27;;;25.58;27.19
63916;BME280;50094;51.356;-0.196;2023-02-22T00:11:16;100461.07;;;25.81;27.19
63916;BME280;50094;51.356;-0.196;2023-02-22T00:13:43;100459.19;;;25.56;27.18
63916;BME280;50094;51.356;-0.196;2023-02-22T00:16:14;100465.45;;;25.75;27.19
63916;BME280;50094;51.356;-0.196;2023-02-22T00:18:41;100457.82;;;25.28;27.20
63916;BME280;50094;51.356;-0.196;2023-02-22T00:21:10;100466.80;;;25.55;27.18
63916;BME280;50094;51.356;-0.196;2023-02-22T00:23:40;100478.49;;;25.49;27.20
63916;BME280;50094;51.356;-0.196;2023-02-22T00:26:08;100469.23;;;25.71;27.20
63916;BME280;50094;51.356;-0.196;2023-02-22T00:28:35;100476.09;;;25.70;27.20
63916;BME280;50094;51.356;-0.196;2023-02-22T00:31:04;100469.08;;;25.52;27.19
63916;BME280;50094;51.356;-0.196;2023-02-22T00:33:32;100465.64;;;25.47;27.19
63916;BME280;50094;51.356;-0.196;2023-02-22T00:35:59;100464.37;;;25.46;27.18
63916;BME280;50094;51.356;-0.196;2023-02-22T00:38:26;100466.10;;;25.68;27.17
63916;BME280;50094;51.356;-0.196;2023-02-22T00:40:53;100461.93;;;25.65;27.17
63916;BME280;50094;51.356;-0.196;2023-02-22T00:43:20;100462.67;;;25.63;27.17
63916;BME280;50094;51.356;-0.196;2023-02-22T00:45:47;100463.13;;;25.59;27.19
63916;BME280;50094;51.356;-0.196;2023-02-22T00:48:14;100457.97;;;25.60;27.19
63916;BME280;50094;51.356;-0.196;2023-02-22T00:50:42;100453.53;;;25.36;27.20
63916;BME280;50094;51.356;-0.196;2023-02-22T00:53:10;100444.34;;;25.34;27.21
63916;BME280;50094;51.356;-0.196;2023-02-22T00:55:38;100447.70;;;25.56;27.22
63916;BME280;50094;51.356;-0.196;2023-02-22T00:58:06;100452.73;;;25.30;27.26
63916;BME280;50094;51.356;-0.196;2023-02-22T01:00:35;100451.39;;;25.22;27.33
63916;BME280;50094;51.356;-0.196;2023-02-22T01:03:04;100447.51;;;25.28;27.36
63916;BME280;50094;51.356;-0.196;2023-02-22T01:05:32;100448.44;;;25.54;27.36
63916;BME280;50094;51.356;-0.196;2023-02-22T01:08:01;100446.95;;;25.44;27.29
63916;BME280;50094;51.356;-0.196;2023-02-22T01:10:30;100451.08;;;25.41;27.29
63916;BME280;50094;51.356;-0.196;2023-02-22T01:12:58;100449.45;;;25.38;27.27
63916;BME280;50094;51.356;-0.196;2023-02-22T01:15:28;100448.40;;;25.35;27.26
63916;BME280;50094;51.356;-0.196;2023-02-22T01:17:57;100446.63;;;25.59;27.26
63916;BME280;50094;51.356;-0.196;2023-02-22T01:20:26;100449.08;;;25.35;27.25
63916;BME280;50094;51.356;-0.196;2023-02-22T01:22:56;100445.55;;;25.32;27.25
63916;BME280;50094;51.356;-0.196;2023-02-22T01:25:25;100441.54;;;25.30;27.26
63916;BME280;50094;51.356;-0.196;2023-02-22T01:27:53;100437.70;;;25.52;27.25
63916;BME280;50094;51.356;-0.196;2023-02-22T01:30:23;100436.65;;;25.74;27.25
63916;BME280;50094;51.356;-0.196;2023-02-22T01:32:50;100430.56;;;25.47;27.24
63916;BME280;50094;51.356;-0.196;2023-02-22T01:35:20;100428.80;;;25.46;27.24
63916;BME280;50094;51.356;-0.196;2023-02-22T01:37:48;100432.18;;;25.46;27.22
63916;BME280;50094;51.356;-0.196;2023-02-22T01:40:17;100433.47;;;25.41;27.23
63916;BME280;50094;51.356;-0.196;2023-02-22T01:42:48;100436.36;;;25.20;27.23
63916;BME280;50094;51.356;-0.196;2023-02-22T01:45:54;100430.24;;;25.21;27.23
63916;BME280;50094;51.356;-0.196;2023-02-22T01:48:27;100425.42;;;25.43;27.21
63916;BME280;50094;51.356;-0.196;2023-02-22T01:50:58;100426.77;;;25.42;27.21
63916;BME280;50094;51.356;-0.196;2023-02-22T01:53:30;100429.03;;;25.44;27.19
63916;BME280;50094;51.356;-0.196;2023-02-22T01:55:59;100432.11;;;25.42;27.20
63916;BME280;50094;51.356;-0.196;2023-02-22T01:58:28;100426.86;;;25.19;27.20
63916;BME280;50094;51.356;-0.196;2023-02-22T02:00:56;100422.98;;;25.19;27.19
63916;BME280;50094;51.356;-0.196;2023-02-22T02:03:28;100424.89;;;25.37;27.19
63916;BME280;50094;51.356;-0.196;2023-02-22T02:06:01;100419.92;;;25.38;27.19
63916;BME280;50094;51.356;-0.196;2023-02-22T02:08:34;100428.06;;;25.37;27.19
63916;BME280;50094;51.356;-0.196;2023-02-22T02:11:04;100426.05;;;25.39;27.17
63916;BME280;50094;51.356;-0.196;2023-02-22T02:13:32;100418.25;;;25.17;27.16
63916;BME280;50094;51.356;-0.196;2023-02-22T02:15:59;100412.29;;;25.36;27.15
63916;BME280;50094;51.356;-0.196;2023-02-22T02:18:27;100409.22;;;25.12;27.14
63916;BME280;50094;51.356;-0.196;2023-02-22T02:23:41;100410.98;;;25.23;27.15
63916;BME280;50094;51.356;-0.196;2023-02-22T02:26:40;100403.17;;;25.28;27.15
63916;BME280;50094;51.356;-0.196;2023-02-22T02:29:41;100401.95;;;25.26;27.15
63916;BME280;50094;51.356;-0.196;2023-02-22T02:32:35;100399.09;;;25.24;27.15
63916;BME280;50094;51.356;-0.196;2023-02-22T02:35:11;100396.19;;;25.18;27.17
63916;BME280;50094;51.356;-0.196;2023-02-22T02:37:47;100395.46;;;25.24;27.16
63916;BME280;50094;51.356;-0.196;2023-02-22T02:40:22;100395.48;;;25.23;27.18
63916;BME280;50094;51.356;-0.196;2023-02-22T02:42:58;100397.00;;;25.44;27.20
63916;BME280;50094;51.356;-0.196;2023-02-22T02:45:31;100394.43;;;25.18;27.20
63916;BME280;50094;51.356;-0.196;2023-02-22T02:48:01;100389.06;;;25.23;27.18
63916;BME280;50094;51.356;-0.196;2023-02-22T02:50:35;100382.73;;;25.22;27.18
63916;BME280;50094;51.356;-0.196;2023-02-22T02:53:07;100379.25;;;25.20;27.17
63916;BME280;50094;51.356;-0.196;2023-02-22T02:55:36;100381.39;;;25.12;27.19
63916;BME280;50094;51.356;-0.196;2023-02-22T02:58:04;100378.29;;;25.14;27.18
63916;BME280;50094;51.356;-0.196;2023-02-22T03:00:34;100374.59;;;25.11;27.19
63916;BME280;50094;51.356;-0.196;2023-02-22T03:03:16;100369.05;;;25.11;27.19
63916;BME280;50094;51.356;-0.196;2023-02-22T03:06:04;100363.60;;;25.14;27.18
63916;BME280;50094;51.356;-0.196;2023-02-22T03:08:40;100363.38;;;24.93;27.17
63916;BME280;50094;51.356;-0.196;2023-02-22T03:11:11;100365.14;;;25.12;27.18
63916;BME280;50094;51.356;-0.196;2023-02-22T03:13:48;100361.38;;;25.12;27.17
63916;BME280;50094;51.356;-0.196;2023-02-22T03:16:20;100362.88;;;25.01;27.15
63916;BME280;50094;51.356;-0.196;2023-02-22T03:18:53;100359.52;;;25.34;27.08
63916;BME280;50094;51.356;-0.196;2023-02-22T03:21:27;100358.61;;;25.23;27.04
63916;BME280;50094;51.356;-0.196;2023-02-22T03:24:05;100355.27;;;25.42;26.98
63916;BME280;50094;51.356;-0.196;2023-02-22T03:26:36;100356.65;;;25.20;27.05
63916;BME280;50094;51.356;-0.196;2023-02-22T03:29:07;100360.28;;;25.09;27.09
63916;BME280;50094;51.356;-0.196;2023-02-22T03:31:39;100359.97;;;24.99;27.14
63916;BME280;50094;51.356;-0.196;2023-02-22T03:34:10;100361.28;;;24.90;27.21
63916;BME280;50094;51.356;-0.196;2023-02-22T03:36:44;100354.77;;;24.49;27.47
63916;BME280;50094;51.356;-0.196;2023-02-22T03:39:15;100351.21;;;24.85;27.66
63916;BME280;50094;51.356;-0.196;2023-02-22T03:41:47;100347.43;;;24.82;27.72
63916;BME280;50094;51.356;-0.196;2023-02-22T03:44:17;100343.83;;;24.48;27.78
63916;BME280;50094;51.356;-0.196;2023-02-22T03:46:48;100343.59;;;24.73;27.86
63916;BME280;50094;51.356;-0.196;2023-02-22T03:49:22;100340.12;;;24.89;27.97
63916;BME280;50094;51.356;-0.196;2023-02-22T03:51:52;100338.42;;;24.80;28.08
63916;BME280;50094;51.356;-0.196;2023-02-22T03:54:20;100332.52;;;24.54;28.15
63916;BME280;50094;51.356;-0.196;2023-02-22T03:56:50;100330.02;;;24.53;28.25
63916;BME280;50094;51.356;-0.196;2023-02-22T03:59:19;100326.42;;;24.71;28.29
63916;BME280;50094;51.356;-0.196;2023-02-22T04:01:47;100328.77;;;24.69;28.31
63916;BME280;50094;51.356;-0.196;2023-02-22T04:04:15;100328.89;;;24.45;28.29
63916;BME280;50094;51.356;-0.196;2023-02-22T04:06:41;100336.24;;;24.40;28.32
63916;BME280;50094;51.356;-0.196;2023-02-22T04:09:08;100332.91;;;24.34;28.34
63916;BME280;50094;51.356;-0.196;2023-02-22T04:11:36;100331.06;;;24.32;28.35
63916;BME280;50094;51.356;-0.196;2023-02-22T04:14:03;100332.21;;;24.27;28.43
63916;BME280;50094;51.356;-0.196;2023-02-22T04:16:30;100330.33;;;24.27;28.49
63916;BME280;50094;51.356;-0.196;2023-02-22T04:18:56;100332.33;;;24.48;28.47
63916;BME280;50094;51.356;-0.196;2023-02-22T04:21:24;100328.90;;;24.38;28.51
63916;BME280;50094;51.356;-0.196;2023-02-22T04:23:51;100331.13;;;24.68;28.47
63916;BME280;50094;51.356;-0.196;2023-02-22T04:26:18;100329.98;;;24.47;28.47
63916;BME280;50094;51.356;-0.196;2023-02-22T04:28:45;100322.02;;;24.23;28.44
63916;BME280;50094;51.356;-0.196;2023-02-22T04:31:12;100320.08;;;24.26;28.36
63916;BME280;50094;51.356;-0.196;2023-02-22T04:33:40;100314.09;;;24.18;28.35
63916;BME280;50094;51.356;-0.196;2023-02-22T04:36:08;100311.26;;;24.35;28.32
63916;BME280;50094;51.356;-0.196;2023-02-22T04:38:35;100305.86;;;24.28;28.31
63916;BME280;50094;51.356;-0.196;2023-02-22T04:41:03;100312.99;;;24.18;28.30
63916;BME280;50094;51.356;-0.196;2023-02-22T04:43:30;100310.03;;;24.34;28.34
63916;BME280;50094;51.356;-0.196;2023-02-22T04:45:57;100315.32;;;24.07;28.36
63916;BME280;50094;51.356;-0.196;2023-02-22T04:48:24;100310.62;;;24.26;28.38
63916;BME280;50094;51.356;-0.196;2023-02-22T04:50:51;100307.63;;;24.05;28.44
63916;BME280;50094;51.356;-0.196;2023-02-22T04:53:18;100302.29;;;24.05;28.44
63916;BME280;50094;51.356;-0.196;2023-02-22T04:55:44;100303.48;;;23.81;28.47
63916;BME280;50094;51.356;-0.196;2023-02-22T04:58:11;100307.96;;;24.27;28.50
63916;BME280;50094;51.356;-0.196;2023-02-22T05:00:38;100307.83;;;24.05;28.57
63916;BME280;50094;51.356;-0.196;2023-02-22T05:03:05;100300.71;;;24.02;28.53
63916;BME280;50094;51.356;-0.196;2023-02-22T05:05:32;100297.33;;;23.80;28.58
63916;BME280;50094;51.356;-0.196;2023-02-22T05:07:59;100295.98;;;23.92;28.54
63916;BME280;50094;51.356;-0.196;2023-02-22T05:10:26;100301.00;;;24.05;28.48
63916;BME280;50094;51.356;-0.196;2023-02-22T05:12:53;100295.98;;;24.11;28.44
63916;BME280;50094;51.356;-0.196;2023-02-22T05:15:20;100294.42;;;24.12;28.41
63916;BME280;50094;51.356;-0.196;2023-02-22T05:17:47;100295.45;;;24.07;28.40
63916;BME280;50094;51.356;-0.196;2023-02-22T05:20:17;100295.08;;;24.25;28.38
63916;BME280;50094;51.356;-0.196;2023-02-22T05:22:47;100288.69;;;24.19;28.39
63916;BME280;50094;51.356;-0.196;2023-02-22T05:25:14;100293.88;;;23.97;28.41
63916;BME280;50094;51.356;-0.196;2023-02-22T05:27:42;100293.00;;;24.39;28.42
63916;BME280;50094;51.356;-0.196;2023-02-22T05:30:10;100290.40;;;23.94;28.43
63916;BME280;50094;51.356;-0.196;2023-02-22T05:32:38;100290.47;;;23.93;28.42
63916;BME280;50094;51.356;-0.196;2023-02-22T05:35:06;100289.66;;;24.10;28.41
63916;BME280;50094;51.356;-0.196;2023-02-22T05:37:33;100291.41;;;24.28;28.48
63916;BME280;50094;51.356;-0.196;2023-02-22T05:40:01;100292.43;;;24.10;28.58
63916;BME280;50094;51.356;-0.196;2023-02-22T05:42:28;100293.42;;;24.13;28.72
63916;BME280;50094;51.356;-0.196;2023-02-22T05:44:55;100286.64;;;24.37;28.82
63916;BME280;50094;51.356;-0.196;2023-02-22T05:47:22;100283.97;;;24.21;28.90
63916;BME280;50094;51.356;-0.196;2023-02-22T05:49:49;100280.44;;;24.48;28.97
63916;BME280;50094;51.356;-0.196;2023-02-22T05:52:16;100279.53;;;24.31;29.04
63916;BME280;50094;51.356;-0.196;2023-02-22T05:54:44;100277.31;;;24.37;29.10
63916;BME280;50094;51.356;-0.196;2023-02-22T05:57:11;100275.53;;;24.41;29.14
63916;BME280;50094;51.356;-0.196;2023-02-22T05:59:37;100278.88;;;24.28;29.16
63916;BME280;50094;51.356;-0.196;2023-02-22T06:02:05;100285.45;;;24.36;29.18
63916;BME280;50094;51.356;-0.196;2023-02-22T06:04:32;100285.91;;;24.84;29.20
63916;BME280;50094;51.356;-0.196;2023-02-22T06:06:59;100284.52;;;24.65;29.22
63916;BME280;50094;51.356;-0.196;2023-02-22T06:09:26;100288.05;;;24.45;29.24
63916;BME280;50094;51.356;-0.196;2023-02-22T06:11:52;100281.98;;;24.68;29.25
63916;BME280;50094;51.356;-0.196;2023-02-22T06:14:19;100278.66;;;24.46;29.25
63916;BME280;50094;51.356;-0.196;2023-02-22T06:16:51;100272.20;;;24.50;29.22
63916;BME280;50094;51.356;-0.196;2023-02-22T06:19:18;100269.83;;;24.55;29.17
63916;BME280;50094;51.356;-0.196;2023-02-22T06:21:48;100267.78;;;24.62;29.12
63916;BME280;50094;51.356;-0.196;2023-02-22T06:24:15;100268.72;;;24.64;29.07
63916;BME280;50094;51.356;-0.196;2023-02-22T06:26:42;100276.51;;;24.70;29.02
63916;BME280;50094;51.356;-0.196;2023-02-22T06:29:09;100277.62;;;24.73;28.96
63916;BME280;50094;51.356;-0.196;2023-02-22T06:31:37;100279.31;;;24.46;28.88
63916;BME280;50094;51.356;-0.196;2023-02-22T06:34:04;100281.02;;;24.72;28.84
63916;BME280;50094;51.356;-0.196;2023-02-22T06:36:30;100280.84;;;24.77;28.76
63916;BME280;50094;51.356;-0.196;2023-02-22T06:38:57;100277.01;;;24.73;28.68
63916;BME280;50094;51.356;-0.196;2023-02-22T06:41:24;100277.73;;;24.76;28.61
63916;BME280;50094;51.356;-0.196;2023-02-22T06:43:51;100280.50;;;24.46;28.59
63916;BME280;50094;51.356;-0.196;2023-02-22T06:46:18;100289.06;;;24.66;28.58
63916;BME280;50094;51.356;-0.196;2023-02-22T06:48:45;100282.21;;;24.39;28.54
63916;BME280;50094;51.356;-0.196;2023-02-22T06:51:12;100287.37;;;24.66;28.50
63916;BME280;50094;51.356;-0.196;2023-02-22T06:53:39;100286.55;;;24.61;28.48
63916;BME280;50094;51.356;-0.196;2023-02-22T06:56:06;100285.88;;;24.64;28.44
63916;BME280;50094;51.356;-0.196;2023-02-22T06:58:34;100281.65;;;24.34;28.41
63916;BME280;50094;51.356;-0.196;2023-02-22T07:01:01;100280.92;;;24.57;28.39
63916;BME280;50094;51.356;-0.196;2023-02-22T07:03:28;100290.69;;;24.55;28.36
63916;BME280;50094;51.356;-0.196;2023-02-22T07:05:55;100293.90;;;24.51;28.33
63916;BME280;50094;51.356;-0.196;2023-02-22T07:08:22;100295.52;;;24.48;28.33
63916;BME280;50094;51.356;-0.196;2023-02-22T07:10:49;100293.85;;;24.47;28.33
63916;BME280;50094;51.356;-0.196;2023-02-22T07:13:16;100296.23;;;24.46;28.31
63916;BME280;50094;51.356;-0.196;2023-02-22T07:15:43;100296.15;;;24.39;28.31
63916;BME280;50094;51.356;-0.196;2023-02-22T07:18:10;100300.11;;;24.34;28.36
63916;BME280;50094;51.356;-0.196;2023-02-22T07:20:38;100299.72;;;24.35;28.36
63916;BME280;50094;51.356;-0.196;2023-02-22T07:23:05;100299.01;;;24.36;28.35
63916;BME280;50094;51.356;-0.196;2023-02-22T07:25:33;100300.14;;;24.31;28.38
63916;BME280;50094;51.356;-0.196;2023-02-22T07:28:00;100303.01;;;24.31;28.39
63916;BME280;50094;51.356;-0.196;2023-02-22T07:30:29;100307.23;;;24.28;28.43
63916;BME280;50094;51.356;-0.196;2023-02-22T07:32:58;100308.63;;;24.31;28.41
63916;BME280;50094;51.356;-0.196;2023-02-22T07:35:31;100308.29;;;24.32;28.41
63916;BME280;50094;51.356;-0.196;2023-02-22T07:37:59;100310.76;;;24.27;28.46
63916;BME280;50094;51.356;-0.196;2023-02-22T07:40:26;100311.99;;;24.28;28.46
63916;BME280;50094;51.356;-0.196;2023-02-22T07:42:56;100307.91;;;24.28;28.44
63916;BME280;50094;51.356;-0.196;2023-02-22T07:45:25;100312.10;;;24.27;28.44
63916;BME280;50094;51.356;-0.196;2023-02-22T07:47:53;100312.90;;;24.45;28.45
63916;BME280;50094;51.356;-0.196;2023-02-22T07:50:21;100316.27;;;24.67;28.42
63916;BME280;50094;51.356;-0.196;2023-02-22T07:52:50;100316.31;;;24.18;28.42
63916;BME280;50094;51.356;-0.196;2023-02-22T07:55:21;100320.93;;;24.17;28.43
63916;BME280;50094;51.356;-0.196;2023-02-22T07:57:50;100322.57;;;24.15;28.44
63916;BME280;50094;51.356;-0.196;2023-02-22T08:00:22;100325.10;;;24.38;28.44
63916;BME280;50094;51.356;-0.196;2023-02-22T08:02:50;100325.71;;;24.15;28.43
63916;BME280;50094;51.356;-0.196;2023-02-22T08:05:18;100322.86;;;24.38;28.42
63916;BME280;50094;51.356;-0.196;2023-02-22T08:07:46;100318.33;;;24.13;28.43
63916;BME280;50094;51.356;-0.196;2023-02-22T08:10:16;100322.16;;;24.12;28.42
63916;BME280;50094;51.356;-0.196;2023-02-22T08:12:43;100322.51;;;24.13;28.42
63916;BME280;50094;51.356;-0.196;2023-02-22T08:15:16;100321.23;;;24.11;28.42
63916;BME280;50094;51.356;-0.196;2023-02-22T08:17:44;100318.56;;;24.09;28.43
63916;BME280;50094;51.356;-0.196;2023-02-22T08:20:12;100318.33;;;24.07;28.44
63916;BME280;50094;51.356;-0.196;2023-02-22T08:22:42;100320.88;;;24.32;28.43
63916;BME280;50094;51.356;-0.196;2023-02-22T08:25:09;100320.38;;;24.07;28.48
63916;BME280;50094;51.356;-0.196;2023-02-22T08:27:36;100323.53;;;24.14;28.44
63916;BME280;50094;51.356;-0.196;2023-02-22T08:30:04;100326.35;;;23.84;28.45
63916;BME280;50094;51.356;-0.196;2023-02-22T08:32:31;100324.00;;;24.04;28.51
63916;BME280;50094;51.356;-0.196;2023-02-22T08:34:58;100324.28;;;24.25;28.55
63916;BME280;50094;51.356;-0.196;2023-02-22T08:37:25;100320.16;;;24.24;28.59
63916;BME280;50094;51.356;-0.196;2023-02-22T08:39:52;100324.75;;;24.03;28.59
63916;BME280;50094;51.356;-0.196;2023-02-22T08:42:19;100324.43;;;24.00;28.62
63916;BME280;50094;51.356;-0.196;2023-02-22T08:44:46;100323.60;;;24.25;28.61
63916;BME280;50094;51.356;-0.196;2023-02-22T08:47:13;100326.89;;;24.24;28.60
63916;BME280;50094;51.356;-0.196;2023-02-22T08:49:40;100323.01;;;24.24;28.59
63916;BME280;50094;51.356;-0.196;2023-02-22T08:52:08;100319.42;;;24.19;28.65
63916;BME280;50094;51.356;-0.196;2023-02-22T08:54:35;100319.76;;;23.96;28.70
63916;BME280;50094;51.356;-0.196;2023-02-22T08:57:02;100316.86;;;24.18;28.73
63916;BME280;50094;51.356;-0.196;2023-02-22T08:59:29;100322.84;;;24.21;28.71
63916;BME280;50094;51.356;-0.196;2023-02-22T09:01:56;100327.29;;;24.19;28.73
63916;BME280;50094;51.356;-0.196;2023-02-22T09:04:23;100329.00;;;24.39;28.78
63916;BME280;50094;51.356;-0.196;2023-02-22T09:06:50;100327.36;;;24.14;28.79
63916;BME280;50094;51.356;-0.196;2023-02-22T09:09:18;100326.92;;;24.15;28.82
63916;BME280;50094;51.356;-0.196;2023-02-22T09:11:45;100324.82;;;24.18;28.80
63916;BME280;50094;51.356;-0.196;2023-02-22T09:14:13;100326.71;;;24.22;28.82
63916;BME280;50094;51.356;-0.196;2023-02-22T09:16:41;100330.54;;;24.40;28.85
63916;BME280;50094;51.356;-0.196;2023-02-22T09:19:08;100326.76;;;23.92;28.88
63916;BME280;50094;51.356;-0.196;2023-02-22T09:21:35;100326.90;;;23.93;28.88
63916;BME280;50094;51.356;-0.196;2023-02-22T09:24:02;100323.21;;;23.95;28.86
63916;BME280;50094;51.356;-0.196;2023-02-22T09:26:31;100324.02;;;23.97;28.86
63916;BME280;50094;51.356;-0.196;2023-02-22T09:28:58;100335.67;;;23.98;28.89
63916;BME280;50094;51.356;-0.196;2023-02-22T09:31:25;100336.15;;;24.20;28.90
63916;BME280;50094;51.356;-0.196;2023-02-22T09:33:53;100336.35;;;23.95;28.92
63916;BME280;50094;51.356;-0.196;2023-02-22T09:36:20;100339.24;;;24.17;28.92
63916;BME280;50094;51.356;-0.196;2023-02-22T09:38:47;100339.51;;;24.20;28.90
63916;BME280;50094;51.356;-0.196;2023-02-22T09:41:21;100340.64;;;24.19;28.90
63916;BME280;50094;51.356;-0.196;2023-02-22T09:43:59;100346.29;;;23.97;28.92
63916;BME280;50094;51.356;-0.196;2023-02-22T09:46:33;100346.70;;;23.97;28.93
63916;BME280;50094;51.356;-0.196;2023-02-22T09:49:06;100346.13;;;23.70;28.94
63916;BME280;50094;51.356;-0.196;2023-02-22T09:51:40;100347.73;;;24.22;28.93
63916;BME280;50094;51.356;-0.196;2023-02-22T09:54:15;100347.56;;;24.19;28.94
63916;BME280;50094;51.356;-0.196;2023-02-22T09:56:45;100346.18;;;24.21;28.94
63916;BME280;50094;51.356;-0.196;2023-02-22T09:59:19;100346.60;;;24.17;28.97
63916;BME280;50094;51.356;-0.196;2023-02-22T10:01:54;100346.93;;;24.42;28.96
63916;BME280;50094;51.356;-0.196;2023-02-22T10:04:25;100347.90;;;23.98;28.94
63916;BME280;50094;51.356;-0.196;2023-02-22T10:07:03;100347.71;;;24.20;28.93
63916;BME280;50094;51.356;-0.196;2023-02-22T10:09:34;100348.36;;;23.96;28.92
63916;BME280;50094;51.356;-0.196;2023-02-22T10:12:09;100347.91;;;24.19;28.93
63916;BME280;50094;51.356;-0.196;2023-02-22T10:14:46;100349.32;;;24.20;28.91
63916;BME280;50094;51.356;-0.196;2023-02-22T10:17:23;100346.97;;;24.23;28.88
63916;BME280;50094;51.356;-0.196;2023-02-22T10:20:06;100344.91;;;23.99;28.86
63916;BME280;50094;51.356;-0.196;2023-02-22T10:22:47;100342.67;;;24.44;28.86
63916;BME280;50094;51.356;-0.196;2023-02-22T10:25:21;100339.87;;;24.18;28.87
63916;BME280;50094;51.356;-0.196;2023-02-22T10:27:55;100342.85;;;24.17;28.87
63916;BME280;50094;51.356;-0.196;2023-02-22T10:30:27;100342.09;;;24.22;28.84
63916;BME280;50094;51.356;-0.196;2023-02-22T10:33:00;100337.21;;;23.98;28.84
63916;BME280;50094;51.356;-0.196;2023-02-22T10:35:34;100338.43;;;23.97;28.84
63916;BME280;50094;51.356;-0.196;2023-02-22T10:38:10;100338.50;;;24.20;28.84
63916;BME280;50094;51.356;-0.196;2023-02-22T10:40:39;100337.67;;;24.44;28.83
63916;BME280;50094;51.356;-0.196;2023-02-22T10:43:10;100338.24;;;24.04;28.81
63916;BME280;50094;51.356;-0.196;2023-02-22T10:45:37;100337.19;;;24.24;28.80
63916;BME280;50094;51.356;-0.196;2023-02-22T10:48:06;100338.87;;;23.99;28.82
63916;BME280;50094;51.356;-0.196;2023-02-22T10:50:37;100338.82;;;24.21;28.82
63916;BME280;50094;51.356;-0.196;2023-02-22T10:53:04;100340.09;;;23.99;28.83
63916;BME280;50094;51.356;-0.196;2023-02-22T10:55:31;100340.03;;;24.23;28.84
63916;BME280;50094;51.356;-0.196;2023-02-22T10:58:01;100339.94;;;24.23;28.86
63916;BME280;50094;51.356;-0.196;2023-02-22T11:00:33;100337.49;;;24.01;28.85
63916;BME280;50094;51.356;-0.196;2023-02-22T11:03:03;100336.44;;;24.00;28.87
63916;BME280;50094;51.356;-0.196;2023-02-22T11:05:33;100338.58;;;24.46;28.87
63916;BME280;50094;51.356;-0.196;2023-02-22T11:08:24;100336.67;;;24.02;28.89
63916;BME280;50094;51.356;-0.196;2023-02-22T11:10:54;100338.42;;;24.00;28.90
63916;BME280;50094;51.356;-0.196;2023-02-22T11:13:25;100336.93;;;23.99;28.90
63916;BME280;50094;51.356;-0.196;2023-02-22T11:15:53;100340.72;;;24.02;28.90
63916;BME280;50094;51.356;-0.196;2023-02-22T11:18:24;100343.08;;;24.48;28.88
63916;BME280;50094;51.356;-0.196;2023-02-22T11:21:03;100342.80;;;24.24;28.90
63916;BME280;50094;51.356;-0.196;2023-02-22T11:23:32;100342.57;;;24.03;28.91
63916;BME280;50094;51.356;-0.196;2023-02-22T11:26:05;100342.97;;;24.22;28.91
63916;BME280;50094;51.356;-0.196;2023-02-22T11:28:33;100343.70;;;24.23;28.92
63916;BME280;50094;51.356;-0.196;2023-02-22T11:31:10;100346.63;;;24.48;28.91
63916;BME280;50094;51.356;-0.196;2023-02-22T11:33:47;100344.43;;;24.05;28.91
63916;BME280;50094;51.356;-0.196;2023-02-22T11:36:29;100345.01;;;24.47;28.91
63916;BME280;50094;51.356;-0.196;2023-02-22T11:38:57;100347.86;;;24.20;28.93
63916;BME280;50094;51.356;-0.196;2023-02-22T11:41:26;100345.69;;;23.97;28.94
63916;BME280;50094;51.356;-0.196;2023-02-22T11:43:53;100346.60;;;23.97;28.94
63916;BME280;50094;51.356;-0.196;2023-02-22T11:46:21;100349.75;;;24.20;28.94
63916;BME280;50094;51.356;-0.196;2023-02-22T11:48:56;100348.82;;;23.97;28.94
63916;BME280;50094;51.356;-0.196;2023-02-22T11:51:33;100343.47;;;24.16;28.96
63916;BME280;50094;51.356;-0.196;2023-02-22T11:54:18;100340.94;;;23.95;28.96
63916;BME280;50094;51.356;-0.196;2023-02-22T11:56:51;100337.17;;;24.17;28.96
63916;BME280;50094;51.356;-0.196;2023-02-22T11:59:37;100338.82;;;23.93;28.96
63916;BME280;50094;51.356;-0.196;2023-02-22T12:02:27;100337.41;;;24.39;28.97
63916;BME280;50094;51.356;-0.196;2023-02-22T12:05:17;100339.09;;;24.16;28.96
63916;BME280;50094;51.356;-0.196;2023-02-22T12:07:59;100340.14;;;23.97;28.95
63916;BME280;50094;51.356;-0.196;2023-02-22T12:10:40;100340.36;;;24.40;28.96
63916;BME280;50094;51.356;-0.196;2023-02-22T12:13:22;100341.37;;;24.17;28.96
63916;BME280;50094;51.356;-0.196;2023-02-22T12:15:57;100340.40;;;23.93;28.98
63916;BME280;50094;51.356;-0.196;2023-02-22T12:18:32;100338.15;;;24.19;28.96
63916;BME280;50094;51.356;-0.196;2023-02-22T12:21:05;100333.12;;;24.16;28.97
63916;BME280;50094;51.356;-0.196;2023-02-22T12:23:37;100335.36;;;24.12;29.01
63916;BME280;50094;51.356;-0.196;2023-02-22T12:26:11;100338.49;;;23.89;29.01
63916;BME280;50094;51.356;-0.196;2023-02-22T12:28:44;100337.39;;;24.32;29.03
63916;BME280;50094;51.356;-0.196;2023-02-22T12:31:18;100338.15;;;24.08;29.04
63916;BME280;50094;51.356;-0.196;2023-02-22T12:33:52;100335.56;;;24.08;29.04
63916;BME280;50094;51.356;-0.196;2023-02-22T12:36:32;100334.91;;;23.85;29.05
63916;BME280;50094;51.356;-0.196;2023-02-22T12:39:08;100337.52;;;24.27;29.07
63916;BME280;50094;51.356;-0.196;2023-02-22T12:41:42;100338.75;;;24.04;29.08
63916;BME280;50094;51.356;-0.196;2023-02-22T12:44:16;100341.15;;;23.85;29.08
63916;BME280;50094;51.356;-0.196;2023-02-22T12:46:47;100340.53;;;24.07;29.08
63916;BME280;50094;51.356;-0.196;2023-02-22T12:49:21;100339.34;;;24.05;29.09
63916;BME280;50094;51.356;-0.196;2023-02-22T12:51:58;100336.71;;;24.04;29.09
63916;BME280;50094;51.356;-0.196;2023-02-22T12:54:38;100337.56;;;23.82;29.10
63916;BME280;50094;51.356;-0.196;2023-02-22T12:57:13;100337.95;;;24.03;29.10
63916;BME280;50094;51.356;-0.196;2023-02-22T12:59:47;100337.03;;;23.82;29.11